Time;durP1;ratioP1;P1;durP2;ratioP2;P2;SDS_P1;SDS_P2;PMS_P1;PMS_P2;Temp;Humidity;BMP_temperature;BMP_pressure;BME280_temperature;BME280_humidity;BME280_pressure;Samples;Min_cycle;Max_cycle;Signal;HPM_P1;HPM_P2
2023/04/17 00:02:17;;;;;;;32.50;22.33;;;10.60;99.90;;;;;;5041357;28;20180;-84
2023/04/17 00:04:44;;;;;;;36.67;22.30;;;10.80;99.90;;;;;;5041194;28;20672;-84
2023/04/17 00:07:10;;;;;;;30.43;21.47;;;10.70;99.90;;;;;;5043895;28;20226;-84
2023/04/17 00:09:35;;;;;;;33.47;21.63;;;10.70;99.90;;;;;;5041306;28;20222;-85
2023/04/17 00:12:01;;;;;;;33.67;23.03;;;10.60;99.90;;;;;;5042272;28;20208;-84
2023/04/17 00:14:28;;;;;;;32.77;22.43;;;10.60;99.90;;;;;;5043741;28;20195;-84
2023/04/17 00:16:53;;;;;;;30.70;21.00;;;10.70;99.90;;;;;;5041409;28;20172;-84
2023/04/17 00:19:19;;;;;;;34.80;21.93;;;10.60;99.90;;;;;;5043774;28;20196;-84
2023/04/17 00:21:45;;;;;;;30.43;21.87;;;10.60;99.90;;;;;;5042964;28;20183;-84
2023/04/17 00:24:11;;;;;;;34.83;21.70;;;10.50;99.90;;;;;;5042312;28;20203;-84
2023/04/17 00:26:37;;;;;;;35.63;21.90;;;10.60;99.90;;;;;;5050098;28;20184;-84
2023/04/17 00:29:03;;;;;;;29.50;20.37;;;10.60;99.90;;;;;;5057169;28;20175;-85
2023/04/17 00:31:28;;;;;;;32.43;21.47;;;10.60;99.90;;;;;;5056802;28;20553;-84
2023/04/17 00:33:54;;;;;;;30.33;21.50;;;10.60;99.90;;;;;;5050196;28;20743;-83
2023/04/17 00:36:19;;;;;;;36.13;21.37;;;10.60;99.90;;;;;;5040470;28;20211;-85
2023/04/17 00:38:45;;;;;;;36.07;22.87;;;11.30;99.90;;;;;;5040373;28;20180;-84
2023/04/17 00:41:10;;;;;;;30.37;21.63;;;10.60;99.90;;;;;;5040528;28;20644;-84
2023/04/17 00:43:37;;;;;;;28.97;21.33;;;10.50;99.90;;;;;;5040390;28;20204;-84
2023/04/17 00:46:04;;;;;;;33.60;21.67;;;10.50;99.90;;;;;;5039934;28;20195;-84
2023/04/17 00:48:30;;;;;;;30.87;21.67;;;10.70;99.90;;;;;;5039829;28;20191;-85
2023/04/17 00:51:00;;;;;;;32.47;21.77;;;10.60;99.90;;;;;;5040371;28;20208;-84
2023/04/17 00:53:27;;;;;;;35.13;21.17;;;10.50;99.90;;;;;;5040276;28;20200;-85
2023/04/17 00:55:54;;;;;;;33.23;21.80;;;10.50;99.90;;;;;;5039885;28;20172;-84
2023/04/17 00:58:20;;;;;;;36.33;21.93;;;10.50;99.90;;;;;;5039804;28;20172;-85
2023/04/17 01:00:47;;;;;;;33.87;22.07;;;10.50;99.90;;;;;;5041281;28;20173;-83
2023/04/17 01:03:13;;;;;;;35.80;22.30;;;10.40;99.90;;;;;;5040551;28;20196;-84
2023/04/17 01:05:40;;;;;;;34.00;23.20;;;10.50;99.90;;;;;;5040717;28;20177;-84
2023/04/17 01:08:06;;;;;;;34.33;21.93;;;10.50;99.90;;;;;;5041945;28;20164;-84
2023/04/17 01:10:31;;;;;;;32.23;21.67;;;10.40;99.90;;;;;;5042219;28;20234;-84
2023/04/17 01:13:05;;;;;;;36.23;21.30;;;10.50;99.90;;;;;;5040614;28;20204;-84
2023/04/17 01:15:31;;;;;;;32.43;22.30;;;10.50;99.90;;;;;;5041663;28;20180;-84
2023/04/17 01:17:57;;;;;;;32.77;22.90;;;10.40;99.90;;;;;;5041896;28;20656;-84
2023/04/17 01:20:24;;;;;;;34.33;24.43;;;10.50;99.90;;;;;;5040607;28;20212;-84
2023/04/17 01:22:52;;;;;;;31.07;22.23;;;10.40;99.90;;;;;;5038828;28;20218;-84
2023/04/17 01:25:18;;;;;;;30.70;21.50;;;10.40;99.90;;;;;;5038809;28;20213;-85
2023/04/17 01:27:44;;;;;;;37.03;22.53;;;10.40;99.90;;;;;;5040235;28;20172;-84
2023/04/17 01:30:10;;;;;;;37.97;21.97;;;10.40;99.90;;;;;;5039636;28;20263;-84
2023/04/17 01:32:35;;;;;;;36.13;22.73;;;10.40;99.90;;;;;;5038450;28;20214;-84
2023/04/17 01:35:01;;;;;;;31.47;21.53;;;10.40;99.90;;;;;;5037850;28;20546;-84
2023/04/17 01:37:27;;;;;;;34.77;21.10;;;10.40;99.90;;;;;;5038075;28;20184;-84
2023/04/17 01:39:53;;;;;;;29.90;21.97;;;10.40;99.90;;;;;;5039262;28;20176;-85
2023/04/17 01:42:18;;;;;;;29.83;21.83;;;10.40;99.90;;;;;;5037557;28;20659;-84
2023/04/17 01:44:44;;;;;;;34.77;22.90;;;10.40;99.90;;;;;;5036547;28;20192;-84
2023/04/17 01:47:10;;;;;;;38.77;24.07;;;10.30;99.90;;;;;;5039783;28;20228;-84
2023/04/17 01:49:35;;;;;;;33.57;23.37;;;10.30;99.90;;;;;;5038534;28;20172;-84
2023/04/17 01:52:01;;;;;;;35.10;22.77;;;10.30;99.90;;;;;;5036789;28;20200;-85
2023/04/17 01:54:26;;;;;;;36.73;25.13;;;10.40;99.90;;;;;;5037946;28;20195;-84
2023/04/17 01:56:52;;;;;;;37.70;24.30;;;10.30;99.90;;;;;;5038719;28;20208;-84
2023/04/17 01:59:18;;;;;;;32.87;23.70;;;10.30;99.90;;;;;;5038462;28;20183;-84
2023/04/17 02:01:44;;;;;;;38.67;25.10;;;10.30;99.90;;;;;;5037138;28;20179;-84
2023/04/17 02:04:10;;;;;;;32.33;22.50;;;10.30;99.90;;;;;;5036806;28;20226;-85
2023/04/17 02:06:35;;;;;;;35.00;22.77;;;10.30;99.90;;;;;;5038229;28;20172;-84
2023/04/17 02:09:01;;;;;;;37.90;24.57;;;10.30;99.90;;;;;;5036313;28;20187;-84
2023/04/17 02:11:27;;;;;;;34.70;24.00;;;10.30;99.90;;;;;;5038087;28;20274;-84
2023/04/17 02:13:54;;;;;;;36.63;24.40;;;10.20;99.90;;;;;;5038582;28;20220;-84
2023/04/17 02:16:23;;;;;;;36.50;23.40;;;10.20;99.90;;;;;;5038880;28;20196;-84
2023/04/17 02:18:49;;;;;;;41.77;26.03;;;10.20;99.90;;;;;;5037301;28;20275;-84
2023/04/17 02:21:15;;;;;;;38.70;24.63;;;10.20;99.90;;;;;;5038001;28;20674;-85
2023/04/17 02:23:41;;;;;;;40.30;24.97;;;10.20;99.90;;;;;;5038719;28;20231;-83
2023/04/17 02:26:07;;;;;;;33.07;23.77;;;10.20;99.90;;;;;;5039621;28;20180;-83
2023/04/17 02:28:32;;;;;;;37.27;24.73;;;10.20;99.90;;;;;;5039180;28;20180;-84
2023/04/17 02:30:58;;;;;;;36.27;24.53;;;10.20;99.90;;;;;;5039100;28;20260;-85
2023/04/17 02:33:23;;;;;;;39.83;24.77;;;10.20;99.90;;;;;;5037206;28;20314;-84
2023/04/17 02:35:49;;;;;;;36.83;25.60;;;10.20;99.90;;;;;;5037097;28;20175;-84
2023/04/17 02:38:15;;;;;;;36.73;24.10;;;10.20;99.90;;;;;;5037993;28;20711;-84
2023/04/17 02:40:40;;;;;;;38.03;25.80;;;10.20;99.90;;;;;;5037038;28;20188;-83
2023/04/17 02:43:06;;;;;;;39.83;25.80;;;10.20;99.90;;;;;;5038273;28;20192;-84
2023/04/17 02:45:32;;;;;;;34.30;25.43;;;10.10;99.90;;;;;;5037716;28;20187;-84
2023/04/17 02:47:57;;;;;;;40.33;25.97;;;10.20;99.90;;;;;;5036949;28;20180;-85
2023/04/17 02:50:23;;;;;;;38.43;26.30;;;10.20;99.90;;;;;;5039280;28;20592;-84
2023/04/17 02:52:48;;;;;;;35.73;26.37;;;10.20;99.90;;;;;;5038787;28;20200;-84
2023/04/17 02:55:14;;;;;;;42.20;25.73;;;10.20;99.90;;;;;;5040528;28;20176;-85
2023/04/17 02:57:39;;;;;;;40.13;26.70;;;10.20;99.90;;;;;;5042277;28;20203;-84
2023/04/17 03:00:12;;;;;;;45.60;27.93;;;10.10;99.90;;;;;;5041473;28;20196;-86
2023/04/17 03:02:38;;;;;;;38.37;26.33;;;10.10;99.90;;;;;;5043202;28;20172;-84
2023/04/17 03:05:05;;;;;;;40.73;25.43;;;10.10;99.90;;;;;;5056075;28;20192;-84
2023/04/17 03:07:31;;;;;;;43.77;26.33;;;10.10;99.90;;;;;;5058428;28;20180;-84
2023/04/17 03:09:57;;;;;;;40.07;27.70;;;10.10;99.90;;;;;;5058715;28;20187;-84
2023/04/17 03:12:23;;;;;;;39.10;26.73;;;10.10;99.90;;;;;;5056678;28;20711;-84
2023/04/17 03:14:49;;;;;;;42.57;26.20;;;10.00;99.90;;;;;;5057169;28;20210;-84
2023/04/17 03:17:14;;;;;;;44.57;26.57;;;10.10;99.90;;;;;;5047118;28;20562;-84
2023/04/17 03:19:40;;;;;;;37.43;26.83;;;10.10;99.90;;;;;;5045638;28;20207;-85
2023/04/17 03:22:06;;;;;;;41.83;26.60;;;10.10;99.90;;;;;;5045345;28;20177;-84
2023/04/17 03:24:31;;;;;;;44.10;25.90;;;10.10;99.90;;;;;;5044747;28;20239;-84
2023/04/17 03:26:58;;;;;;;41.40;28.10;;;10.10;99.90;;;;;;5044827;28;20173;-84
2023/04/17 03:29:24;;;;;;;40.13;26.63;;;10.10;99.90;;;;;;5043338;28;20180;-84
2023/04/17 03:31:50;;;;;;;45.80;27.70;;;10.00;99.90;;;;;;5043849;28;20200;-84
2023/04/17 03:34:16;;;;;;;37.70;26.57;;;10.00;99.90;;;;;;5042250;28;20200;-84
2023/04/17 03:36:42;;;;;;;40.03;28.10;;;10.00;99.90;;;;;;5043680;28;20184;-84
2023/04/17 03:39:07;;;;;;;39.87;28.57;;;10.00;99.90;;;;;;5042551;28;20249;-84
2023/04/17 03:41:33;;;;;;;45.03;28.70;;;10.00;99.90;;;;;;5043752;28;20652;-84
2023/04/17 03:43:58;;;;;;;42.13;28.47;;;10.00;99.90;;;;;;5043871;28;20207;-84
2023/04/17 03:46:24;;;;;;;38.03;27.17;;;10.00;99.90;;;;;;5043180;28;20176;-84
2023/04/17 03:48:50;;;;;;;39.40;28.17;;;10.00;99.90;;;;;;5043232;28;20199;-84
2023/04/17 03:51:16;;;;;;;39.57;27.40;;;9.90;99.90;;;;;;5043105;28;20207;-85
2023/04/17 03:53:41;;;;;;;45.83;28.30;;;9.90;99.90;;;;;;5041883;28;20200;-85
2023/04/17 03:56:07;;;;;;;45.80;28.53;;;9.90;99.90;;;;;;5042754;28;20176;-84
2023/04/17 03:58:32;;;;;;;44.87;28.27;;;9.90;99.90;;;;;;5044107;28;20180;-84
2023/04/17 04:01:00;;;;;;;40.93;28.40;;;9.90;99.90;;;;;;5042106;28;20176;-84
2023/04/17 04:03:27;;;;;;;40.50;27.77;;;9.90;99.90;;;;;;5043775;28;20688;-85
2023/04/17 04:05:52;;;;;;;44.23;28.47;;;9.90;99.90;;;;;;5041293;28;20183;-85
2023/04/17 04:08:18;;;;;;;43.33;28.03;;;9.90;99.90;;;;;;5041339;28;20172;-84
2023/04/17 04:10:44;;;;;;;43.83;29.30;;;9.90;99.90;;;;;;5040451;28;20282;-84
2023/04/17 04:13:10;;;;;;;40.03;28.37;;;9.80;99.90;;;;;;5040818;28;20223;-84
2023/04/17 04:15:36;;;;;;;42.10;29.07;;;9.80;99.90;;;;;;5040932;28;20176;-83
2023/04/17 04:18:01;;;;;;;43.03;30.13;;;9.80;99.90;;;;;;5041625;28;20188;-84
2023/04/17 04:20:27;;;;;;;42.53;30.97;;;9.80;99.90;;;;;;5040874;28;20169;-84
2023/04/17 04:22:56;;;;;;;47.60;28.80;;;9.80;99.90;;;;;;5041112;28;20242;-85
2023/04/17 04:25:22;;;;;;;44.77;28.57;;;9.80;99.90;;;;;;5041104;28;20765;-85
2023/04/17 04:27:48;;;;;;;44.87;28.73;;;9.80;99.90;;;;;;5041393;28;20177;-85
2023/04/17 04:30:15;;;;;;;47.37;29.93;;;9.80;99.90;;;;;;5040770;28;20198;-85
2023/04/17 04:32:44;;;;;;;45.90;29.27;;;9.80;99.90;;;;;;5039903;28;20206;-84
2023/04/17 04:35:13;;;;;;;41.27;29.13;;;9.80;99.90;;;;;;5042077;28;20199;-84
2023/04/17 04:37:41;;;;;;;42.10;28.60;;;9.80;99.90;;;;;;5042177;28;20608;-83
2023/04/17 04:40:11;;;;;;;43.40;29.87;;;9.80;99.90;;;;;;5043537;28;20165;-84
2023/04/17 04:42:38;;;;;;;46.73;29.80;;;9.80;99.90;;;;;;5042130;28;20172;-84
2023/04/17 04:45:04;;;;;;;45.67;28.77;;;9.80;99.90;;;;;;5042922;28;20188;-81
2023/04/17 04:47:30;;;;;;;44.37;29.00;;;9.80;99.90;;;;;;5041176;28;20172;-82
2023/04/17 04:49:55;;;;;;;47.87;31.47;;;9.80;99.90;;;;;;5040146;28;20287;-82
2023/04/17 04:52:21;;;;;;;40.17;28.67;;;9.80;99.90;;;;;;5040355;28;20204;-84
2023/04/17 04:54:47;;;;;;;54.63;29.80;;;9.80;99.90;;;;;;5037903;28;20200;-85
2023/04/17 04:57:12;;;;;;;46.50;31.50;;;9.80;99.90;;;;;;5038239;28;20172;-84
2023/04/17 04:59:38;;;;;;;45.83;30.37;;;9.80;99.90;;;;;;5039407;28;20263;-84
2023/04/17 05:02:03;;;;;;;49.50;30.37;;;9.80;99.90;;;;;;5037653;28;20180;-85
2023/04/17 05:04:29;;;;;;;41.23;28.83;;;9.80;99.90;;;;;;5038382;28;20223;-85
2023/04/17 05:06:55;;;;;;;45.43;30.37;;;9.80;99.90;;;;;;5037558;28;20643;-84
2023/04/17 05:09:21;;;;;;;45.97;30.67;;;9.80;99.90;;;;;;5036270;28;20184;-84
2023/04/17 05:11:47;;;;;;;45.47;31.13;;;9.80;99.90;;;;;;5037315;28;20218;-84
2023/04/17 05:14:12;;;;;;;51.17;32.20;;;9.80;99.90;;;;;;5037345;28;20318;-84
2023/04/17 05:16:39;;;;;;;46.63;31.20;;;9.80;99.90;;;;;;5038278;28;20180;-85
2023/04/17 05:19:05;;;;;;;47.97;31.67;;;9.80;99.90;;;;;;5035669;28;20234;-85
2023/04/17 05:21:31;;;;;;;46.87;30.10;;;9.80;99.90;;;;;;5036748;28;20168;-85
2023/04/17 05:23:56;;;;;;;47.60;29.97;;;9.90;99.90;;;;;;5038704;28;20737;-84
2023/04/17 05:26:22;;;;;;;48.40;29.70;;;9.80;99.90;;;;;;5039836;28;20191;-82
2023/04/17 05:28:47;;;;;;;44.50;29.97;;;9.80;99.90;;;;;;5039529;28;20179;-82
2023/04/17 05:31:13;;;;;;;46.50;31.47;;;9.80;99.90;;;;;;5039111;28;20288;-82
2023/04/17 05:33:39;;;;;;;48.67;30.60;;;9.80;99.90;;;;;;5037419;28;20192;-81
2023/04/17 05:36:06;;;;;;;49.83;31.07;;;9.80;99.90;;;;;;5036763;28;20172;-81
2023/04/17 05:38:32;;;;;;;43.80;31.83;;;9.80;99.90;;;;;;5035440;28;20591;-82
2023/04/17 05:40:57;;;;;;;49.47;32.20;;;9.80;99.90;;;;;;5034129;28;20168;-82
2023/04/17 05:43:23;;;;;;;42.17;30.60;;;9.80;99.90;;;;;;5034637;28;20242;-83
2023/04/17 05:45:49;;;;;;;42.57;30.23;;;9.80;99.90;;;;;;5036207;28;20168;-82
2023/04/17 05:48:15;;;;;;;45.50;30.73;;;9.80;99.90;;;;;;5038256;28;20184;-82
2023/04/17 05:50:40;;;;;;;49.47;32.03;;;9.90;99.90;;;;;;5039681;28;20589;-82
2023/04/17 05:53:06;;;;;;;47.10;32.97;;;9.80;99.90;;;;;;5040882;28;20203;-83
2023/04/17 05:55:31;;;;;;;45.47;30.27;;;9.80;99.90;;;;;;5040379;28;20176;-83
2023/04/17 05:57:57;;;;;;;47.20;31.77;;;9.90;99.90;;;;;;5039200;28;20203;-82
2023/04/17 06:00:23;;;;;;;49.50;31.20;;;9.90;99.90;;;;;;5037539;28;20172;-82
2023/04/17 06:02:49;;;;;;;45.20;31.37;;;9.90;99.90;;;;;;5038918;28;20184;-82
2023/04/17 06:05:16;;;;;;;45.73;31.50;;;9.90;99.90;;;;;;5039193;28;20271;-82
2023/04/17 06:07:42;;;;;;;43.13;30.13;;;10.00;99.90;;;;;;5047751;28;20190;-82
2023/04/17 06:10:09;;;;;;;43.47;32.23;;;10.00;99.90;;;;;;5051906;28;20177;-82
2023/04/17 06:12:35;;;;;;;42.50;29.07;;;10.00;99.90;;;;;;5048909;28;20212;-82
2023/04/17 06:15:02;;;;;;;42.07;29.83;;;10.00;99.90;;;;;;5037721;28;20203;-82
2023/04/17 06:17:29;;;;;;;41.93;29.57;;;10.10;99.90;;;;;;5039714;28;20641;-83
2023/04/17 06:19:54;;;;;;;44.80;28.67;;;10.10;99.90;;;;;;5039425;28;20192;-82
2023/04/17 06:22:20;;;;;;;40.87;29.73;;;10.20;99.90;;;;;;5039803;28;20648;-83
2023/04/17 06:24:46;;;;;;;42.57;30.17;;;10.20;99.90;;;;;;5038158;28;20291;-82
2023/04/17 06:27:11;;;;;;;39.07;29.00;;;10.20;99.90;;;;;;5039583;28;20234;-83
2023/04/17 06:29:37;;;;;;;44.77;29.60;;;10.20;99.90;;;;;;5040918;28;20184;-82
2023/04/17 06:32:02;;;;;;;41.20;28.53;;;10.30;99.90;;;;;;5043687;28;20204;-82
2023/04/17 06:34:28;;;;;;;44.00;28.50;;;10.30;99.90;;;;;;5043246;28;20612;-83
2023/04/17 06:36:53;;;;;;;39.13;28.27;;;10.30;99.90;;;;;;5043907;28;20183;-83
2023/04/17 06:39:19;;;;;;;38.40;28.10;;;10.30;99.90;;;;;;5042239;28;20173;-83
2023/04/17 06:41:45;;;;;;;38.03;27.50;;;10.30;99.90;;;;;;5041920;28;20214;-81
2023/04/17 06:44:10;;;;;;;43.27;29.30;;;10.30;99.90;;;;;;5043047;28;20249;-82
2023/04/17 06:46:36;;;;;;;37.47;27.30;;;10.30;99.90;;;;;;5041119;28;20560;-83
2023/04/17 06:49:02;;;;;;;38.60;28.50;;;10.30;99.90;;;;;;5041364;28;20184;-82
2023/04/17 06:51:28;;;;;;;37.90;26.93;;;10.20;99.90;;;;;;5043315;28;20204;-83
2023/04/17 06:53:53;;;;;;;37.17;27.97;;;10.20;99.90;;;;;;5041845;28;20193;-83
2023/04/17 06:56:19;;;;;;;39.40;27.60;;;10.30;99.90;;;;;;5042666;28;20254;-83
2023/04/17 06:58:45;;;;;;;34.23;26.43;;;10.30;99.90;;;;;;5041507;28;20191;-82
2023/04/17 07:01:12;;;;;;;39.73;27.67;;;10.30;99.90;;;;;;5040472;28;20207;-84
2023/04/17 07:03:38;;;;;;;40.60;27.00;;;10.40;99.90;;;;;;5042521;28;20224;-83
2023/04/17 07:06:04;;;;;;;37.93;27.30;;;10.30;99.90;;;;;;5041081;28;20211;-83
2023/04/17 07:08:29;;;;;;;40.93;28.27;;;10.30;99.90;;;;;;5042619;28;20565;-82
2023/04/17 07:10:55;;;;;;;42.17;29.13;;;10.40;99.90;;;;;;5041601;28;20663;-82
2023/04/17 07:13:20;;;;;;;37.00;27.43;;;10.30;99.90;;;;;;5042974;28;20265;-82
2023/04/17 07:15:53;;;;;;;38.33;27.57;;;10.50;99.90;;;;;;5042282;28;20175;-81
2023/04/17 07:18:20;;;;;;;37.40;27.30;;;10.40;99.90;;;;;;5040601;28;20264;-81
2023/04/17 07:20:46;;;;;;;35.97;26.67;;;10.40;99.90;;;;;;5041820;28;20235;-81
2023/04/17 07:23:12;;;;;;;37.37;28.67;;;10.40;99.90;;;;;;5041032;28;20211;-82
2023/04/17 07:25:37;;;;;;;39.03;29.10;;;10.50;99.90;;;;;;5042022;28;20176;-82
2023/04/17 07:28:03;;;;;;;41.17;27.70;;;10.40;99.90;;;;;;5042467;28;20675;-82
2023/04/17 07:30:28;;;;;;;39.93;28.50;;;10.50;99.90;;;;;;5041082;28;20679;-82
2023/04/17 07:32:54;;;;;;;39.07;26.77;;;10.50;99.90;;;;;;5042072;28;20222;-82
2023/04/17 07:35:19;;;;;;;38.27;29.00;;;10.50;99.90;;;;;;5040227;28;20179;-82
2023/04/17 07:37:45;;;;;;;39.33;28.73;;;10.60;99.90;;;;;;5040847;28;20173;-81
2023/04/17 07:40:10;;;;;;;37.67;27.90;;;10.60;99.90;;;;;;5041888;28;20766;-83
2023/04/17 07:42:36;;;;;;;49.73;30.70;;;10.70;99.90;;;;;;5041103;28;20173;-82
2023/04/17 07:45:03;;;;;;;36.80;29.30;;;10.70;99.90;;;;;;5040711;28;20223;-82
2023/04/17 07:47:29;;;;;;;43.60;31.13;;;10.70;99.90;;;;;;5040528;28;20191;-82
2023/04/17 07:49:55;;;;;;;38.57;29.67;;;10.70;99.90;;;;;;5051834;28;20176;-82
2023/04/17 07:52:21;;;;;;;37.60;28.27;;;10.70;99.90;;;;;;5052356;28;20204;-80
2023/04/17 07:54:46;;;;;;;37.47;29.13;;;10.70;99.90;;;;;;5045959;28;20196;-82
2023/04/17 07:57:13;;;;;;;37.83;30.43;;;10.70;99.90;;;;;;5041181;28;20179;-82
2023/04/17 07:59:39;;;;;;;40.30;29.33;;;10.70;99.90;;;;;;5041253;28;20172;-82
2023/04/17 08:02:05;;;;;;;42.37;28.97;;;10.80;99.90;;;;;;5039999;28;20187;-82
2023/04/17 08:04:31;;;;;;;43.70;29.33;;;10.80;99.90;;;;;;5040740;28;20196;-82
2023/04/17 08:06:57;;;;;;;42.03;28.80;;;10.90;99.90;;;;;;5040066;28;20183;-82
2023/04/17 08:09:24;;;;;;;41.97;29.57;;;10.90;99.90;;;;;;5040846;28;20185;-82
2023/04/17 08:11:50;;;;;;;37.90;27.47;;;10.90;99.90;;;;;;5039598;28;20223;-82
2023/04/17 08:14:18;;;;;;;40.00;30.40;;;10.90;99.90;;;;;;5039075;28;20196;-82
2023/04/17 08:16:46;;;;;;;41.50;30.13;;;10.90;99.90;;;;;;5039084;28;20172;-82
2023/04/17 08:19:11;;;;;;;40.67;28.00;;;10.90;99.90;;;;;;5038334;28;20183;-82
2023/04/17 08:21:37;;;;;;;37.97;27.43;;;10.90;99.90;;;;;;5040135;28;20172;-82
2023/04/17 08:24:02;;;;;;;36.63;26.97;;;11.00;99.90;;;;;;5040214;28;20253;-81
2023/04/17 08:26:28;;;;;;;34.77;26.53;;;11.00;99.90;;;;;;5039311;28;20321;-82
2023/04/17 08:28:54;;;;;;;37.63;28.03;;;11.10;99.90;;;;;;5039975;28;20507;-82
2023/04/17 08:31:20;;;;;;;35.83;27.70;;;11.10;99.90;;;;;;5038755;28;20262;-83
2023/04/17 08:33:46;;;;;;;36.33;27.10;;;11.10;99.90;;;;;;5040500;28;20192;-82
2023/04/17 08:36:12;;;;;;;45.67;28.87;;;11.20;99.90;;;;;;5038991;28;20648;-82
2023/04/17 08:38:37;;;;;;;36.10;27.13;;;11.30;99.90;;;;;;5040044;28;20180;-82
2023/04/17 08:41:07;;;;;;;33.70;26.17;;;11.40;99.90;;;;;;5039617;28;20169;-82
2023/04/17 08:43:34;;;;;;;35.90;27.50;;;11.40;99.90;;;;;;5040096;28;20188;-83
2023/04/17 08:46:01;;;;;;;31.60;26.13;;;11.40;99.90;;;;;;5040155;28;20179;-82
2023/04/17 08:48:27;;;;;;;38.83;27.07;;;11.40;99.90;;;;;;5039302;28;20180;-82
2023/04/17 08:50:53;;;;;;;33.57;28.00;;;11.40;99.90;;;;;;5037688;28;20176;-81
2023/04/17 08:53:19;;;;;;;34.70;26.03;;;11.40;99.90;;;;;;5038119;28;20188;-81
2023/04/17 08:55:45;;;;;;;35.03;26.67;;;11.50;99.90;;;;;;5037473;28;20243;-81
2023/04/17 08:58:12;;;;;;;34.90;25.90;;;11.60;99.90;;;;;;5039048;28;20175;-80
2023/04/17 09:00:42;;;;;;;34.77;26.57;;;11.70;99.90;;;;;;5039656;28;20165;-80
2023/04/17 09:03:11;;;;;;;33.57;26.83;;;11.80;99.90;;;;;;5037442;28;20180;-80
2023/04/17 09:05:40;;;;;;;32.63;26.07;;;11.90;99.90;;;;;;5038291;28;20652;-80
2023/04/17 09:08:16;;;;;;;30.67;25.07;;;11.90;99.90;;;;;;5039573;28;20168;-81
2023/04/17 09:10:46;;;;;;;29.73;24.10;;;12.00;99.90;;;;;;5039101;28;20651;-80
2023/04/17 09:13:14;;;;;;;29.70;23.93;;;12.00;99.90;;;;;;5037617;28;20240;-80
2023/04/17 09:15:41;;;;;;;30.13;23.13;;;12.20;99.90;;;;;;5037213;28;20177;-80
2023/04/17 09:18:29;;;;;;;30.70;23.03;;;12.20;99.90;;;;;;5037214;28;20660;-80
2023/04/17 09:20:57;;;;;;;31.13;24.47;;;12.30;99.90;;;;;;5038548;28;20197;-80
2023/04/17 09:23:24;;;;;;;27.87;22.17;;;12.40;99.90;;;;;;5037408;28;20287;-83
2023/04/17 09:26:09;;;;;;;32.27;23.07;;;12.50;99.90;;;;;;5038825;28;20165;-82
2023/04/17 09:28:38;;;;;;;28.07;23.73;;;12.60;99.90;;;;;;5038583;28;20164;-83
2023/04/17 09:31:22;;;;;;;29.00;22.97;;;12.60;99.90;;;;;;5038065;28;20176;-83
2023/04/17 09:33:57;;;;;;;27.57;21.53;;;12.80;99.90;;;;;;5038956;28;20534;-82
2023/04/17 09:36:23;;;;;;;27.00;21.30;;;12.90;99.90;;;;;;5037971;28;20172;-83
2023/04/17 09:38:49;;;;;;;23.63;19.77;;;13.00;99.90;;;;;;5037380;28;20620;-83
2023/04/17 09:41:22;;;;;;;30.97;20.63;;;13.10;99.90;;;;;;5037576;28;20240;-83
2023/04/17 09:43:48;;;;;;;25.00;18.80;;;13.20;99.90;;;;;;5038264;28;20613;-83
2023/04/17 09:46:30;;;;;;;24.07;19.77;;;13.30;99.90;;;;;;5040228;28;20223;-83
2023/04/17 09:48:59;;;;;;;27.53;17.87;;;13.20;99.90;;;;;;5038787;28;20212;-83
2023/04/17 09:51:26;;;;;;;23.80;17.50;;;13.30;99.90;;;;;;5040050;28;20204;-83
2023/04/17 09:53:55;;;;;;;20.10;17.00;;;13.30;99.90;;;;;;5038456;28;20583;-83
2023/04/17 09:56:23;;;;;;;21.53;15.80;;;13.30;99.90;;;;;;5040317;28;20165;-83
2023/04/17 09:58:50;;;;;;;22.47;15.40;;;13.20;99.90;;;;;;5038451;28;20651;-83
2023/04/17 10:01:16;;;;;;;16.57;14.10;;;13.20;99.90;;;;;;5038824;28;20686;-84
2023/04/17 10:03:42;;;;;;;21.27;14.00;;;13.00;99.90;;;;;;5040357;28;20207;-83
2023/04/17 10:06:08;;;;;;;17.10;13.37;;;13.10;99.90;;;;;;5039308;28;20745;-83
2023/04/17 10:08:34;;;;;;;16.17;14.40;;;13.10;99.90;;;;;;5038482;28;20176;-83
2023/04/17 10:11:06;;;;;;;17.17;12.53;;;13.30;99.90;;;;;;5039634;28;20277;-83
2023/04/17 10:13:37;;;;;;;14.30;10.90;;;13.30;99.90;;;;;;5038527;28;20192;-83
2023/04/17 10:16:04;;;;;;;13.57;10.43;;;13.30;99.90;;;;;;5039318;28;20643;-83
2023/04/17 10:18:30;;;;;;;14.37;9.93;;;13.40;99.90;;;;;;5038636;28;20180;-82
2023/04/17 10:20:56;;;;;;;14.50;10.73;;;13.40;99.90;;;;;;5040099;28;20172;-83
2023/04/17 10:23:27;;;;;;;12.57;9.77;;;13.40;99.90;;;;;;5041525;28;20251;-82
2023/04/17 10:26:24;;;;;;;16.50;10.83;;;13.50;99.90;;;;;;5041965;28;20176;-81
2023/04/17 10:28:53;;;;;;;15.17;10.23;;;13.60;99.90;;;;;;5055359;28;20179;-82
2023/04/17 10:31:19;;;;;;;14.83;10.57;;;13.70;99.90;;;;;;5054157;28;20267;-83
2023/04/17 10:33:53;;;;;;;15.77;11.50;;;13.80;99.90;;;;;;5045407;28;20624;-84
2023/04/17 10:36:36;;;;;;;14.73;10.10;;;13.90;99.90;;;;;;5038773;28;20171;-83
2023/04/17 10:39:15;;;;;;;13.87;10.27;;;14.00;99.90;;;;;;5039587;28;20182;-84
2023/04/17 10:42:06;;;;;;;15.40;11.03;;;14.20;99.90;;;;;;5036829;28;20342;-83
2023/04/17 10:44:40;;;;;;;13.53;10.10;;;14.20;99.90;;;;;;5037210;28;20196;-84
2023/04/17 10:47:09;;;;;;;16.43;10.07;;;14.20;99.90;;;;;;5037557;28;20211;-83
2023/04/17 10:49:57;;;;;;;14.03;8.83;;;14.30;99.90;;;;;;5038640;28;20590;-83
2023/04/17 10:52:32;;;;;;;10.40;8.43;;;14.30;99.90;;;;;;5037732;28;20295;-83
2023/04/17 10:55:15;;;;;;;11.37;8.40;;;14.40;99.90;;;;;;5038540;28;20191;-84
2023/04/17 10:58:03;;;;;;;10.40;7.73;;;14.40;99.90;;;;;;5037341;28;20164;-83
2023/04/17 11:00:36;;;;;;;12.63;7.47;;;14.40;99.90;;;;;;5036853;28;20194;-84
2023/04/17 11:03:03;;;;;;;8.63;6.87;;;14.40;99.90;;;;;;5036858;28;20582;-83
2023/04/17 11:05:34;;;;;;;11.97;7.97;;;14.50;99.90;;;;;;5036330;28;20214;-84
2023/04/17 11:08:00;;;;;;;10.10;8.10;;;14.50;99.90;;;;;;5036174;28;20173;-83
2023/04/17 11:10:26;;;;;;;9.90;7.60;;;14.50;99.90;;;;;;5035999;28;20270;-84
2023/04/17 11:12:54;;;;;;;9.33;7.33;;;14.60;99.90;;;;;;5037721;28;20191;-82
2023/04/17 11:15:30;;;;;;;10.23;7.60;;;14.60;99.90;;;;;;5038918;28;20246;-83
2023/04/17 11:17:58;;;;;;;9.27;7.37;;;14.90;99.90;;;;;;5039709;28;20172;-82
2023/04/17 11:20:28;;;;;;;12.00;8.13;;;15.00;99.90;;;;;;5038771;28;20176;-82
2023/04/17 11:22:55;;;;;;;11.27;8.20;;;15.10;99.90;;;;;;5040666;28;20152;-83
2023/04/17 11:25:21;;;;;;;11.10;8.13;;;15.00;99.90;;;;;;5039393;28;20180;-84
2023/04/17 11:27:50;;;;;;;9.50;7.47;;;15.00;99.90;;;;;;5039336;28;20180;-83
2023/04/17 11:30:27;;;;;;;10.10;7.27;;;15.00;99.90;;;;;;5041083;28;20196;-83
2023/04/17 11:32:52;;;;;;;9.67;6.63;;;15.10;99.90;;;;;;5042019;28;20192;-83
2023/04/17 11:35:38;;;;;;;8.77;6.77;;;15.30;99.90;;;;;;5038648;28;20516;-83
2023/04/17 11:38:21;;;;;;;11.20;7.47;;;15.30;99.90;;;;;;5040511;28;20168;-83
2023/04/17 11:40:49;;;;;;;9.10;6.57;;;15.30;99.90;;;;;;5040124;28;20175;-84
2023/04/17 11:43:16;;;;;;;7.30;5.87;;;15.30;99.90;;;;;;5040567;28;20199;-83
2023/04/17 11:45:43;;;;;;;9.47;6.40;;;15.40;99.90;;;;;;5040905;28;20255;-83
2023/04/17 11:48:11;;;;;;;8.50;6.03;;;15.40;99.90;;;;;;5039768;28;20598;-82
2023/04/17 11:50:38;;;;;;;5.87;5.13;;;15.40;99.90;;;;;;5039669;28;20180;-84
2023/04/17 11:53:04;;;;;;;8.70;5.23;;;15.30;99.90;;;;;;5039993;28;20196;-82
2023/04/17 11:55:30;;;;;;;6.27;5.47;;;15.40;99.90;;;;;;5038216;28;20176;-81
2023/04/17 11:58:06;;;;;;;9.73;5.27;;;15.50;99.90;;;;;;5039283;28;20221;-82
2023/04/17 12:00:33;;;;;;;6.50;5.73;;;15.60;99.90;;;;;;5039910;28;20735;-82
2023/04/17 12:03:01;;;;;;;6.60;5.57;;;15.60;99.90;;;;;;5039896;28;20671;-84
2023/04/17 12:05:28;;;;;;;7.53;5.97;;;15.60;99.90;;;;;;5036961;28;20307;-84
2023/04/17 12:08:06;;;;;;;8.77;5.80;;;15.50;99.90;;;;;;5037139;28;20184;-84
2023/04/17 12:10:44;;;;;;;8.40;5.43;;;15.50;99.90;;;;;;5038314;28;20555;-84
2023/04/17 12:13:10;;;;;;;7.37;5.53;;;15.30;99.90;;;;;;5038405;28;20184;-84
2023/04/17 12:15:39;;;;;;;8.53;5.90;;;15.20;99.90;;;;;;5036673;28;20268;-84
2023/04/17 12:18:07;;;;;;;6.50;5.33;;;15.10;99.90;;;;;;5036630;28;20184;-84
2023/04/17 12:20:35;;;;;;;8.13;4.93;;;15.10;99.90;;;;;;5038292;28;20283;-85
2023/04/17 12:23:02;;;;;;;8.00;5.80;;;15.10;99.90;;;;;;5037007;28;20251;-83
2023/04/17 12:25:28;;;;;;;8.40;5.23;;;15.10;99.90;;;;;;5039362;28;20200;-84
2023/04/17 12:27:55;;;;;;;9.50;5.90;;;15.20;99.90;;;;;;5036804;28;20204;-84
2023/04/17 12:30:25;;;;;;;8.77;5.73;;;15.30;99.90;;;;;;5037156;28;20176;-83
2023/04/17 12:32:51;;;;;;;11.03;5.30;;;15.40;99.90;;;;;;5038549;28;20271;-83